Kenton, Oklahoma
Current Conditions -  °F | °C
As of 7:55 PM on Friday 21 Nov 2014 (Local Time) from KCAO Reporting Station
Clear Clear  
Wind Chill: 40°   Ceiling: Unl
Heat Index: 45°   Visibility: 10mi
Dew Point: 25°   Wind: 9mph
Humidity: 46%   Direction: 240°WSW
Pressure: 29.98"   Gusts: NA
Location:  36.9°N, 102.96°W
Report Text: KCAO 220155Z AUTO 24008KT 10SM CLR 07/M04 A2998 RMK AO2 SLP152 T00721039
Loading
Personal Weather Stations






























Interactive Weather Map New forecast layout! Learn more

10-Day Weather Forecast

Advertisements
Track Severe Weather on mobile